createdAt,value
2023-02-13T00:01:20.992Z,16.87
2023-02-13T00:03:49.108Z,17.40
2023-02-13T00:06:17.140Z,16.77
2023-02-13T00:08:46.464Z,15.63
2023-02-13T00:11:14.896Z,15.07
2023-02-13T00:13:42.990Z,13.43
2023-02-13T00:16:11.612Z,14.13
2023-02-13T00:18:40.652Z,12.90
2023-02-13T00:21:11.058Z,14.00
2023-02-13T00:23:40.264Z,13.07
2023-02-13T00:26:14.683Z,13.23
2023-02-13T00:28:42.997Z,13.63
2023-02-13T00:31:14.454Z,13.63
2023-02-13T00:33:42.779Z,14.03
2023-02-13T00:36:15.007Z,14.50
2023-02-13T00:38:44.244Z,13.27
2023-02-13T00:41:14.451Z,12.70
2023-02-13T00:43:42.753Z,13.03
2023-02-13T00:46:13.347Z,12.83
2023-02-13T00:48:41.699Z,12.27
2023-02-13T00:51:10.592Z,12.73
2023-02-13T00:53:39.062Z,12.17
2023-02-13T00:56:08.386Z,12.37
2023-02-13T00:58:38.236Z,12.07
2023-02-13T01:01:06.706Z,11.77
2023-02-13T01:03:37.144Z,13.07
2023-02-13T01:06:06.023Z,13.03
2023-02-13T01:08:34.706Z,12.70
2023-02-13T01:11:02.934Z,12.67
2023-02-13T01:13:30.883Z,11.87
2023-02-13T01:16:00.484Z,11.37
2023-02-13T01:18:28.708Z,11.27
2023-02-13T01:20:59.175Z,11.17
2023-02-13T01:23:27.508Z,11.53
2023-02-13T01:25:55.833Z,11.20
2023-02-13T01:28:23.993Z,10.73
2023-02-13T01:30:54.998Z,10.20
2023-02-13T01:33:25.307Z,11.47
2023-02-13T01:35:53.582Z,11.90
2023-02-13T01:38:21.937Z,11.23
2023-02-13T01:40:52.540Z,11.70
2023-02-13T01:43:23.468Z,11.43
2023-02-13T01:45:56.144Z,10.87
2023-02-13T01:48:30.337Z,10.40
2023-02-13T01:51:03.267Z,10.17
2023-02-13T01:53:34.642Z,11.07
2023-02-13T01:56:09.615Z,10.17
2023-02-13T01:58:40.871Z,10.63
2023-02-13T02:01:10.802Z,10.60
2023-02-13T02:03:44.743Z,10.77
2023-02-13T02:06:17.944Z,11.70
2023-02-13T02:08:48.538Z,10.73
2023-02-13T02:11:28.993Z,10.77
2023-02-13T02:13:59.197Z,11.23
2023-02-13T02:16:27.282Z,11.40
2023-02-13T02:18:57.045Z,10.67
2023-02-13T02:22:01.955Z,10.90
2023-02-13T02:25:09.506Z,10.20
2023-02-13T02:28:07.410Z,9.23
2023-02-13T02:31:03.922Z,9.67
2023-02-13T02:33:41.575Z,10.30
2023-02-13T02:36:27.975Z,10.47
2023-02-13T02:39:05.096Z,9.73
2023-02-13T02:41:45.173Z,9.60
2023-02-13T02:44:23.805Z,9.20
2023-02-13T02:47:20.880Z,9.17
2023-02-13T02:50:02.159Z,8.47
2023-02-13T02:52:41.910Z,8.83
2023-02-13T02:55:16.760Z,9.63
2023-02-13T02:58:07.723Z,9.70
2023-02-13T03:00:58.627Z,9.60
2023-02-13T03:03:45.970Z,9.17
2023-02-13T03:06:21.038Z,9.00
2023-02-13T03:09:13.400Z,8.47
2023-02-13T03:12:01.896Z,8.40
2023-02-13T03:14:30.173Z,8.53
2023-02-13T03:17:17.109Z,8.70
2023-02-13T03:20:19.964Z,8.97
2023-02-13T03:23:03.837Z,9.23
2023-02-13T03:25:45.110Z,8.73
2023-02-13T03:28:38.119Z,8.23
2023-02-13T03:31:14.770Z,8.63
2023-02-13T03:33:57.867Z,8.27
2023-02-13T03:36:52.781Z,7.53
2023-02-13T03:39:31.237Z,8.60
2023-02-13T03:42:04.223Z,8.23
2023-02-13T03:44:40.293Z,7.97
2023-02-13T03:47:10.784Z,7.97
2023-02-13T03:50:00.492Z,8.60
2023-02-13T03:52:33.560Z,7.40
2023-02-13T03:55:25.362Z,7.57
2023-02-13T03:58:15.681Z,8.00
2023-02-13T04:00:49.437Z,8.00
2023-02-13T04:03:24.022Z,7.77
2023-02-13T04:05:55.613Z,7.40
2023-02-13T04:08:23.672Z,7.53
2023-02-13T04:10:58.562Z,7.53
2023-02-13T04:13:33.761Z,8.00
2023-02-13T04:16:07.471Z,7.37
2023-02-13T04:18:36.412Z,7.70
2023-02-13T04:21:08.864Z,6.97
2023-02-13T04:23:37.273Z,7.73
2023-02-13T04:26:10.056Z,7.17
2023-02-13T04:28:38.200Z,7.97
2023-02-13T04:31:09.444Z,8.00
2023-02-13T04:33:37.536Z,7.10
2023-02-13T04:36:06.456Z,7.43
2023-02-13T04:38:37.080Z,7.50
2023-02-13T04:41:06.972Z,7.83
2023-02-13T04:43:35.027Z,7.37
2023-02-13T04:46:03.360Z,7.37
2023-02-13T04:48:31.590Z,7.17
2023-02-13T04:51:00.049Z,7.13
2023-02-13T04:53:28.117Z,7.33
2023-02-13T04:55:56.194Z,6.90
2023-02-13T04:58:25.604Z,6.67
2023-02-13T05:00:53.743Z,7.50
2023-02-13T05:03:21.871Z,7.10
2023-02-13T05:05:50.525Z,6.63
2023-02-13T05:08:18.769Z,6.80
2023-02-13T05:10:46.872Z,6.57
2023-02-13T05:13:16.736Z,6.87
2023-02-13T05:15:47.096Z,7.03
2023-02-13T05:18:16.934Z,6.97
2023-02-13T05:20:45.194Z,6.77
2023-02-13T05:23:24.068Z,6.90
2023-02-13T05:25:58.810Z,6.80
2023-02-13T05:28:44.363Z,7.30
2023-02-13T05:31:14.299Z,7.20
2023-02-13T05:33:45.388Z,7.00
2023-02-13T05:36:13.504Z,7.10
2023-02-13T05:38:42.268Z,6.97
2023-02-13T05:41:10.308Z,6.53
2023-02-13T05:43:38.296Z,6.70
2023-02-13T05:46:07.874Z,6.93
2023-02-13T05:48:37.551Z,6.97
2023-02-13T05:51:06.321Z,6.30
2023-02-13T05:53:35.572Z,6.50
2023-02-13T05:56:04.491Z,6.40
2023-02-13T05:58:32.818Z,6.53
2023-02-13T06:01:01.390Z,6.50
2023-02-13T06:03:30.935Z,6.63
2023-02-13T06:06:00.695Z,6.90
2023-02-13T06:08:28.809Z,6.90
2023-02-13T06:10:56.821Z,7.10
2023-02-13T06:13:24.764Z,6.97
2023-02-13T06:15:52.903Z,6.73
2023-02-13T06:18:20.971Z,6.87
2023-02-13T06:20:49.105Z,6.80
2023-02-13T06:23:18.682Z,6.40
2023-02-13T06:25:46.666Z,6.17
2023-02-13T06:28:14.679Z,6.63
2023-02-13T06:30:43.067Z,6.37
2023-02-13T06:33:11.504Z,6.67
2023-02-13T06:35:39.456Z,6.53
2023-02-13T06:38:07.776Z,5.90
2023-02-13T06:40:40.204Z,6.87
2023-02-13T06:43:08.233Z,6.37
2023-02-13T06:45:36.220Z,6.60
2023-02-13T06:48:04.774Z,6.43
2023-02-13T06:50:32.861Z,6.57
2023-02-13T06:53:01.629Z,6.40
2023-02-13T06:55:29.843Z,6.10
2023-02-13T06:57:59.232Z,6.27
2023-02-13T07:00:27.693Z,7.03
2023-02-13T07:02:55.850Z,6.80
2023-02-13T07:05:23.908Z,6.83
2023-02-13T07:07:52.047Z,6.53
2023-02-13T07:10:20.274Z,7.53
2023-02-13T07:13:00.255Z,6.63
2023-02-13T07:15:35.146Z,6.53
2023-02-13T07:18:03.874Z,6.57
2023-02-13T07:20:31.943Z,6.97
2023-02-13T07:23:01.040Z,6.60
2023-02-13T07:25:32.289Z,6.97
2023-02-13T07:28:03.499Z,7.70
2023-02-13T07:30:32.511Z,7.77
2023-02-13T07:33:02.842Z,6.67
2023-02-13T07:35:30.917Z,6.43
2023-02-13T07:38:00.575Z,6.77
2023-02-13T07:40:28.915Z,6.93
2023-02-13T07:42:57.146Z,6.80
2023-02-13T07:45:25.358Z,6.10
2023-02-13T07:47:55.838Z,6.70
2023-02-13T07:50:28.493Z,6.73
2023-02-13T07:53:00.898Z,12.47
2023-02-13T07:55:29.478Z,6.30
2023-02-13T07:57:57.743Z,6.40
2023-02-13T08:00:25.967Z,6.33
2023-02-13T08:02:53.898Z,6.13
2023-02-13T08:05:21.880Z,6.37
2023-02-13T08:07:51.225Z,6.17
2023-02-13T08:10:37.110Z,6.53
2023-02-13T08:13:05.640Z,7.27
2023-02-13T08:15:33.770Z,6.57
2023-02-13T08:18:01.898Z,6.87
2023-02-13T08:20:30.052Z,6.57
2023-02-13T08:23:05.650Z,6.43
2023-02-13T08:25:33.913Z,6.57
2023-02-13T08:28:02.881Z,6.93
2023-02-13T08:30:33.502Z,6.33
2023-02-13T08:33:01.486Z,6.67
2023-02-13T08:35:31.590Z,7.03
2023-02-13T08:38:04.919Z,7.60
2023-02-13T08:40:33.051Z,6.83
2023-02-13T08:43:02.450Z,6.43
2023-02-13T08:45:30.612Z,6.73
2023-02-13T08:47:59.256Z,6.83
2023-02-13T08:50:28.249Z,7.50
2023-02-13T08:52:56.300Z,7.20
2023-02-13T08:55:25.694Z,7.20
2023-02-13T08:57:53.835Z,7.27
2023-02-13T09:00:22.685Z,6.80
2023-02-13T09:02:50.771Z,6.90
2023-02-13T09:05:18.937Z,6.47
2023-02-13T09:07:47.150Z,6.80
2023-02-13T09:10:15.136Z,6.90
2023-02-13T09:12:44.789Z,6.70
2023-02-13T09:15:12.985Z,6.73
2023-02-13T09:17:40.958Z,6.10
2023-02-13T09:20:09.817Z,6.00
2023-02-13T09:22:37.747Z,6.00
2023-02-13T09:25:06.821Z,6.87
2023-02-13T09:27:35.914Z,6.63
2023-02-13T09:30:06.120Z,6.27
2023-02-13T09:32:37.623Z,6.17
2023-02-13T09:35:08.559Z,6.83
2023-02-13T09:37:36.527Z,6.10
2023-02-13T09:40:04.639Z,6.63
2023-02-13T09:42:36.972Z,6.57
2023-02-13T09:45:09.316Z,6.30
2023-02-13T09:47:40.865Z,6.33
2023-02-13T09:50:16.083Z,6.80
2023-02-13T09:52:46.838Z,6.50
2023-02-13T09:55:19.632Z,7.07
2023-02-13T09:57:54.881Z,7.00
2023-02-13T10:00:30.799Z,6.57
2023-02-13T10:03:20.540Z,6.77
2023-02-13T10:05:58.055Z,6.77
2023-02-13T10:08:42.390Z,6.90
2023-02-13T10:11:28.962Z,6.53
2023-02-13T10:14:08.732Z,7.33
2023-02-13T10:16:41.757Z,6.53
2023-02-13T10:19:20.383Z,6.27
2023-02-13T10:21:53.000Z,6.37
2023-02-13T10:24:32.055Z,6.57
2023-02-13T10:27:04.089Z,6.20
2023-02-13T10:30:01.351Z,5.83
2023-02-13T10:32:40.898Z,6.73
2023-02-13T10:35:20.389Z,5.80
2023-02-13T10:37:51.300Z,5.93
2023-02-13T10:40:20.384Z,6.03
2023-02-13T10:42:57.034Z,6.30
2023-02-13T10:45:42.988Z,6.00
2023-02-13T10:48:39.212Z,6.13
2023-02-13T10:51:15.466Z,5.97
2023-02-13T10:53:57.021Z,5.70
2023-02-13T10:56:38.113Z,5.73
2023-02-13T10:59:24.006Z,5.80
2023-02-13T11:01:57.680Z,6.37
2023-02-13T11:04:27.364Z,6.77
2023-02-13T11:06:58.715Z,5.53
2023-02-13T11:09:27.369Z,5.23
2023-02-13T11:11:55.816Z,5.63
2023-02-13T11:14:25.634Z,5.53
2023-02-13T11:16:59.801Z,5.90
2023-02-13T11:19:32.847Z,5.80
2023-02-13T11:22:05.909Z,5.70
2023-02-13T11:24:34.544Z,6.17
2023-02-13T11:27:08.828Z,6.10
2023-02-13T11:29:39.120Z,5.70
2023-02-13T11:32:21.542Z,6.10
2023-02-13T11:34:51.964Z,6.00
2023-02-13T11:37:28.795Z,6.00
2023-02-13T11:39:58.799Z,5.40
2023-02-13T11:42:32.592Z,5.47
2023-02-13T11:45:03.056Z,6.43
2023-02-13T11:47:38.760Z,5.50
2023-02-13T11:50:23.455Z,5.43
2023-02-13T11:52:58.446Z,5.43
2023-02-13T11:55:32.895Z,6.20
2023-02-13T11:58:06.032Z,4.90
2023-02-13T12:00:39.994Z,4.43
2023-02-13T12:03:27.829Z,4.90
2023-02-13T12:06:07.238Z,5.00
2023-02-13T12:08:37.330Z,3.73
2023-02-13T12:11:18.459Z,3.47
2023-02-13T12:13:46.944Z,3.00
2023-02-13T12:16:22.657Z,3.93
2023-02-13T12:18:55.535Z,3.60
2023-02-13T12:21:42.085Z,3.60
2023-02-13T12:24:21.260Z,3.40
2023-02-13T12:26:55.014Z,4.40
2023-02-13T12:29:49.684Z,3.00
2023-02-13T12:32:21.405Z,3.40
2023-02-13T12:35:16.038Z,3.53
2023-02-13T12:37:59.158Z,3.37
2023-02-13T12:40:54.121Z,4.10
2023-02-13T12:43:46.922Z,3.80
2023-02-13T12:46:23.175Z,3.20
2023-02-13T12:49:00.285Z,3.47
2023-02-13T12:51:42.891Z,3.30
2023-02-13T12:54:29.173Z,3.27
2023-02-13T12:57:22.466Z,3.37
2023-02-13T13:00:10.946Z,3.10
2023-02-13T13:03:15.636Z,3.10
2023-02-13T13:06:10.891Z,3.13
2023-02-13T13:08:56.905Z,3.23
2023-02-13T13:11:41.267Z,2.70
2023-02-13T13:14:17.049Z,3.40
2023-02-13T13:16:54.767Z,3.30
2023-02-13T13:19:34.188Z,3.20
2023-02-13T13:22:07.086Z,2.93
2023-02-13T13:24:49.143Z,3.50
2023-02-13T13:27:24.835Z,3.00
2023-02-13T13:29:58.551Z,3.17
2023-02-13T13:32:27.842Z,3.00
2023-02-13T13:34:57.286Z,3.17
2023-02-13T13:37:34.950Z,3.00
2023-02-13T13:40:24.842Z,2.70
2023-02-13T13:43:01.126Z,2.97
2023-02-13T13:45:44.681Z,3.20
2023-02-13T13:48:31.858Z,3.00
2023-02-13T13:51:00.820Z,3.50
2023-02-13T13:53:29.074Z,2.90
2023-02-13T13:56:05.795Z,3.00
2023-02-13T13:58:42.138Z,5.67
2023-02-13T14:01:23.389Z,3.37
2023-02-13T14:03:52.778Z,3.17
2023-02-13T14:06:22.357Z,3.00
2023-02-13T14:09:07.366Z,3.10
2023-02-13T14:11:38.790Z,3.20
2023-02-13T14:14:53.135Z,2.77
2023-02-13T14:17:53.636Z,3.00
2023-02-13T14:20:35.705Z,2.73
2023-02-13T14:23:28.428Z,3.00
2023-02-13T14:26:26.220Z,2.70
2023-02-13T14:29:04.040Z,2.60
2023-02-13T14:31:34.400Z,2.80
2023-02-13T14:34:07.311Z,2.90
2023-02-13T14:36:39.948Z,2.60
2023-02-13T14:39:20.406Z,2.70
2023-02-13T14:42:00.663Z,2.70
2023-02-13T14:44:35.453Z,2.60
2023-02-13T14:47:07.834Z,2.60
2023-02-13T14:49:41.284Z,2.30
2023-02-13T14:52:20.005Z,2.50
2023-02-13T14:54:51.397Z,2.50
2023-02-13T14:57:22.212Z,2.70
2023-02-13T14:59:54.269Z,2.90
2023-02-13T15:02:25.088Z,2.97
2023-02-13T15:04:58.145Z,2.93
2023-02-13T15:07:30.078Z,2.80
2023-02-13T15:10:02.507Z,2.97
2023-02-13T15:12:32.657Z,3.27
2023-02-13T15:15:02.496Z,3.47
2023-02-13T15:17:38.325Z,2.60
2023-02-13T15:20:25.562Z,2.60
2023-02-13T15:22:54.621Z,2.80
2023-02-13T15:25:26.932Z,2.67
2023-02-13T15:27:56.585Z,2.70
2023-02-13T15:30:27.901Z,3.43
2023-02-13T15:32:57.278Z,2.83
2023-02-13T15:35:29.286Z,2.60
2023-02-13T15:37:57.919Z,2.77
2023-02-13T15:40:28.703Z,2.80
2023-02-13T15:42:57.899Z,2.33
2023-02-13T15:45:28.834Z,2.70
2023-02-13T15:47:59.099Z,2.43
2023-02-13T15:50:33.152Z,2.87
2023-02-13T15:53:03.655Z,2.13
2023-02-13T15:55:33.628Z,2.60
2023-02-13T15:58:03.082Z,2.57
2023-02-13T16:00:33.502Z,3.00
2023-02-13T16:03:04.267Z,2.30
2023-02-13T16:05:41.574Z,2.33
2023-02-13T16:08:31.647Z,2.20
2023-02-13T16:11:20.779Z,2.20
2023-02-13T16:14:07.682Z,2.30
2023-02-13T16:16:44.416Z,2.37
2023-02-13T16:19:32.906Z,2.50
2023-02-13T16:22:08.081Z,2.10
2023-02-13T16:24:37.608Z,2.40
2023-02-13T16:27:05.696Z,2.50
2023-02-13T16:29:33.850Z,2.70
2023-02-13T16:32:22.819Z,2.57
2023-02-13T16:34:52.780Z,2.60
2023-02-13T16:37:32.945Z,2.97
2023-02-13T16:40:38.355Z,2.80
2023-02-13T16:43:40.789Z,2.70
2023-02-13T16:46:27.873Z,2.83
2023-02-13T16:49:03.389Z,3.50
2023-02-13T16:51:35.880Z,2.80
2023-02-13T16:54:16.779Z,3.07
2023-02-13T16:56:48.480Z,3.10
2023-02-13T16:59:30.496Z,3.03
2023-02-13T17:02:14.599Z,3.00
2023-02-13T17:04:44.822Z,3.30
2023-02-13T17:07:17.779Z,3.00
2023-02-13T17:09:53.811Z,3.30
2023-02-13T17:12:22.082Z,4.03
2023-02-13T17:14:53.586Z,5.67
2023-02-13T17:17:23.640Z,6.03
2023-02-13T17:19:51.863Z,5.90
2023-02-13T17:22:34.370Z,8.13
2023-02-13T17:25:06.778Z,10.47
2023-02-13T17:27:38.203Z,13.77
2023-02-13T17:30:08.106Z,7.20
2023-02-13T17:32:36.128Z,6.60
2023-02-13T17:35:04.167Z,6.20
2023-02-13T17:37:35.266Z,5.97
2023-02-13T17:40:04.950Z,6.20
2023-02-13T17:42:33.042Z,6.13
2023-02-13T17:45:01.008Z,7.60
2023-02-13T17:47:30.415Z,8.07
2023-02-13T17:50:08.906Z,8.50
2023-02-13T17:52:38.916Z,9.90
2023-02-13T17:55:16.635Z,10.80
2023-02-13T17:57:44.788Z,11.87
2023-02-13T18:00:13.516Z,11.77
2023-02-13T18:02:42.694Z,9.90
2023-02-13T18:05:11.134Z,11.80
2023-02-13T18:07:41.527Z,11.40
2023-02-13T18:10:15.111Z,10.70
2023-02-13T18:12:43.456Z,11.70
2023-02-13T18:15:11.998Z,67.03
2023-02-13T18:17:40.850Z,64.53
2023-02-13T18:20:12.116Z,40.87
2023-02-13T18:22:40.240Z,53.20
2023-02-13T18:25:09.305Z,43.10
2023-02-13T18:27:38.722Z,55.70
2023-02-13T18:30:08.254Z,23.03
2023-02-13T18:32:36.231Z,16.80
2023-02-13T18:35:04.333Z,14.50
2023-02-13T18:37:35.121Z,12.17
2023-02-13T18:40:03.118Z,12.60
2023-02-13T18:42:31.428Z,12.20
2023-02-13T18:45:00.771Z,12.03
2023-02-13T18:47:28.879Z,13.43
2023-02-13T18:49:57.101Z,12.17
2023-02-13T18:52:25.353Z,12.37
2023-02-13T18:54:53.444Z,11.27
2023-02-13T18:57:22.247Z,11.80
2023-02-13T18:59:50.302Z,12.47
2023-02-13T19:02:19.977Z,18.27
2023-02-13T19:04:48.066Z,19.70
2023-02-13T19:07:16.001Z,21.33
2023-02-13T19:09:44.518Z,26.33
2023-02-13T19:12:12.757Z,69.73
2023-02-13T19:14:41.199Z,64.63
2023-02-13T19:17:10.307Z,33.50
2023-02-13T19:19:39.880Z,40.53
2023-02-13T19:22:07.911Z,134.50
2023-02-13T19:24:36.071Z,129.73
2023-02-13T19:27:04.277Z,185.20
2023-02-13T19:29:32.302Z,133.97
2023-02-13T19:32:00.661Z,159.07
2023-02-13T19:34:28.705Z,42.60
2023-02-13T19:36:58.260Z,33.50
2023-02-13T19:39:26.550Z,30.63
2023-02-13T19:41:54.521Z,30.20
2023-02-13T19:44:22.581Z,32.33
2023-02-13T19:46:50.739Z,37.40
2023-02-13T19:49:19.096Z,59.50
2023-02-13T19:51:47.370Z,68.73
2023-02-13T19:54:16.918Z,42.47
2023-02-13T19:56:44.981Z,205.40
2023-02-13T19:59:13.642Z,58.50
2023-02-13T20:01:42.966Z,24.90
2023-02-13T20:04:11.571Z,20.40
2023-02-13T20:06:40.392Z,19.70
2023-02-13T20:09:11.992Z,18.97
2023-02-13T20:11:43.286Z,17.33
2023-02-13T20:14:14.972Z,17.17
2023-02-13T20:16:45.636Z,18.43
2023-02-13T20:19:14.463Z,24.63
2023-02-13T20:21:43.653Z,23.83
2023-02-13T20:24:12.755Z,31.17
2023-02-13T20:26:42.888Z,54.90
2023-02-13T20:29:11.031Z,24.90
2023-02-13T20:31:41.596Z,22.57
2023-02-13T20:34:10.380Z,22.30
2023-02-13T20:36:38.503Z,22.63
2023-02-13T20:39:08.122Z,22.20
2023-02-13T20:41:38.186Z,23.33
2023-02-13T20:44:09.358Z,22.17
2023-02-13T20:46:39.613Z,23.57
2023-02-13T20:49:07.941Z,23.40
2023-02-13T20:51:36.272Z,24.50
2023-02-13T20:54:04.630Z,23.77
2023-02-13T20:56:32.742Z,24.30
2023-02-13T20:59:02.648Z,24.67
2023-02-13T21:01:35.000Z,23.23
2023-02-13T21:04:03.533Z,23.67
2023-02-13T21:06:33.702Z,24.03
2023-02-13T21:09:02.605Z,22.13
2023-02-13T21:11:31.041Z,20.90
2023-02-13T21:13:59.553Z,24.47
2023-02-13T21:16:30.269Z,24.90
2023-02-13T21:19:02.742Z,23.27
2023-02-13T21:21:32.619Z,24.47
2023-02-13T21:24:02.353Z,21.10
2023-02-13T21:26:31.667Z,21.23
2023-02-13T21:29:00.168Z,22.53
2023-02-13T21:31:30.877Z,22.57
2023-02-13T21:34:03.139Z,20.77
2023-02-13T21:36:34.906Z,21.33
2023-02-13T21:39:06.418Z,20.90
2023-02-13T21:41:34.755Z,21.63
2023-02-13T21:44:02.856Z,19.93
2023-02-13T21:46:32.484Z,20.97
2023-02-13T21:49:03.751Z,20.60
2023-02-13T21:51:33.868Z,20.20
2023-02-13T21:54:02.622Z,19.73
2023-02-13T21:56:32.553Z,19.83
2023-02-13T21:59:01.598Z,19.77
2023-02-13T22:01:31.540Z,20.23
2023-02-13T22:04:03.312Z,20.83
2023-02-13T22:06:33.246Z,21.60
2023-02-13T22:09:03.486Z,21.77
2023-02-13T22:11:32.381Z,20.77
2023-02-13T22:14:05.383Z,19.40
2023-02-13T22:16:37.501Z,19.97
2023-02-13T22:19:08.273Z,19.40
2023-02-13T22:21:37.368Z,20.43
2023-02-13T22:24:08.340Z,19.70
2023-02-13T22:26:40.692Z,20.23
2023-02-13T22:29:11.265Z,18.77
2023-02-13T22:31:39.333Z,19.97
2023-02-13T22:34:09.141Z,20.17
2023-02-13T22:36:39.612Z,19.43
2023-02-13T22:39:08.875Z,19.17
2023-02-13T22:41:37.085Z,17.93
2023-02-13T22:44:05.370Z,17.40
2023-02-13T22:46:34.477Z,17.40
2023-02-13T22:49:02.549Z,17.53
2023-02-13T22:51:34.224Z,17.47
2023-02-13T22:54:02.723Z,16.67
2023-02-13T22:56:34.102Z,15.50
2023-02-13T22:59:02.398Z,15.73
2023-02-13T23:01:30.740Z,14.90
2023-02-13T23:03:58.962Z,14.77
2023-02-13T23:06:28.491Z,15.17
2023-02-13T23:08:58.372Z,15.60
2023-02-13T23:11:46.126Z,15.77
2023-02-13T23:14:15.181Z,15.70
2023-02-13T23:17:01.607Z,15.57
2023-02-13T23:19:30.932Z,15.63
2023-02-13T23:21:59.837Z,15.20
2023-02-13T23:24:29.922Z,14.53
2023-02-13T23:26:57.931Z,15.00
2023-02-13T23:29:25.863Z,15.13
2023-02-13T23:31:54.359Z,15.57
2023-02-13T23:34:22.942Z,15.17
2023-02-13T23:36:51.116Z,15.93
2023-02-13T23:39:20.038Z,16.43
2023-02-13T23:41:49.430Z,15.33
2023-02-13T23:44:17.567Z,16.37
2023-02-13T23:46:48.647Z,16.07
2023-02-13T23:49:17.009Z,16.07
2023-02-13T23:51:47.897Z,15.47
2023-02-13T23:54:16.831Z,15.87
2023-02-13T23:56:45.172Z,15.40
2023-02-13T23:59:14.514Z,15.23
